Weather at Shubaytah Airport

Public forecast

Using degrees Celsius for public forecast. Weather courtesy of forecast.io.

Closest aviation weather report (METAR) to Shubaytah Airport

Closest report is Al Bateen Executive Airport, 121.8 nm (225.6 km) NNE.

2023/09/27 18:00 (retrieved 27 minutes ago)

OMAD 271800Z 05006KT CAVOK 33/26 Q1008 NOSIG

Closest aviation forecast (TAF) to Shubaytah Airport

Closest forecast is Al Bateen Executive Airport, 121.8 nm (225.6 km) NNE.

2023/09/27 18:00 (retrieved 27 minutes ago)

TAF OMAD 271700Z 2718/2900 04006KT 8000 NSC BECMG 2800/2802 14012KT PROB30 TEMPO 2803/2806 4000 DU BECMG 2809/2811 32010KT BECMG 2819/2821 04005KT